createdAt,value
2023-01-18T00:01:19.730Z,13.20
2023-01-18T00:03:47.707Z,13.20
2023-01-18T00:06:15.091Z,13.20
2023-01-18T00:08:45.265Z,13.20
2023-01-18T00:11:15.730Z,13.20
2023-01-18T00:13:43.362Z,13.30
2023-01-18T00:16:22.015Z,13.20
2023-01-18T00:18:54.585Z,13.20
2023-01-18T00:21:22.689Z,13.30
2023-01-18T00:23:50.154Z,13.20
2023-01-18T00:26:17.683Z,13.10
2023-01-18T00:28:45.129Z,13.10
2023-01-18T00:31:14.333Z,13.10
2023-01-18T00:33:46.338Z,13.20
2023-01-18T00:36:14.843Z,13.20
2023-01-18T00:38:52.490Z,13.30
2023-01-18T00:41:21.589Z,13.30
2023-01-18T00:43:49.508Z,13.40
2023-01-18T00:46:23.034Z,13.40
2023-01-18T00:48:51.949Z,13.40
2023-01-18T00:51:24.939Z,13.40
2023-01-18T00:53:52.564Z,13.50
2023-01-18T00:56:22.221Z,13.50
2023-01-18T00:58:49.626Z,13.50
2023-01-18T01:01:17.294Z,13.40
2023-01-18T01:04:03.136Z,13.40
2023-01-18T01:06:46.371Z,13.30
2023-01-18T01:09:26.167Z,13.30
2023-01-18T01:12:13.246Z,13.20
2023-01-18T01:15:02.457Z,13.20
2023-01-18T01:17:53.599Z,13.20
2023-01-18T01:20:40.061Z,13.20
2023-01-18T01:23:35.072Z,13.20
2023-01-18T01:26:11.098Z,13.20
2023-01-18T01:28:43.816Z,13.20
2023-01-18T01:31:15.666Z,13.10
2023-01-18T01:33:45.016Z,13.10
2023-01-18T01:36:15.762Z,13.00
2023-01-18T01:38:43.337Z,13.00
2023-01-18T01:41:18.058Z,13.00
2023-01-18T01:43:50.978Z,12.90
2023-01-18T01:46:49.115Z,12.90
2023-01-18T01:49:24.150Z,12.80
2023-01-18T01:51:55.857Z,12.80
2023-01-18T01:54:39.093Z,12.70
2023-01-18T01:57:15.840Z,12.60
2023-01-18T01:59:55.897Z,12.60
2023-01-18T02:02:23.299Z,12.60
2023-01-18T02:04:53.978Z,12.60
2023-01-18T02:07:26.559Z,12.50
2023-01-18T02:09:54.569Z,12.50
2023-01-18T02:12:21.975Z,12.40
2023-01-18T02:14:49.366Z,12.40
2023-01-18T02:17:32.882Z,12.40
2023-01-18T02:20:43.607Z,12.30
2023-01-18T02:23:43.985Z,12.30
2023-01-18T02:26:38.956Z,12.30
2023-01-18T02:29:36.854Z,12.20
2023-01-18T02:32:25.569Z,12.20
2023-01-18T02:35:07.060Z,12.10
2023-01-18T02:38:03.358Z,12.10
2023-01-18T02:40:39.746Z,12.10
2023-01-18T02:43:28.855Z,12.00
2023-01-18T02:46:16.018Z,12.00
2023-01-18T02:48:45.376Z,11.90
2023-01-18T02:51:12.720Z,11.90
2023-01-18T02:53:43.905Z,11.80
2023-01-18T02:56:25.759Z,11.80
2023-01-18T02:59:02.385Z,11.70
2023-01-18T03:01:44.672Z,11.70
2023-01-18T03:04:22.322Z,11.70
2023-01-18T03:06:57.531Z,11.70
2023-01-18T03:09:27.466Z,11.70
2023-01-18T03:12:17.864Z,11.80
2023-01-18T03:15:10.325Z,11.80
2023-01-18T03:18:05.596Z,11.80
2023-01-18T03:20:40.784Z,11.80
2023-01-18T03:23:34.532Z,11.80
2023-01-18T03:26:04.161Z,11.80
2023-01-18T03:28:59.483Z,11.70
2023-01-18T03:32:07.783Z,11.70
2023-01-18T03:35:13.543Z,11.70
2023-01-18T03:37:43.631Z,11.70
2023-01-18T03:40:13.035Z,11.70
2023-01-18T03:43:15.204Z,11.70
2023-01-18T03:45:50.161Z,11.70
2023-01-18T03:48:17.807Z,11.80
2023-01-18T03:51:16.512Z,11.80
2023-01-18T03:53:58.309Z,11.90
2023-01-18T03:56:39.204Z,11.90
2023-01-18T03:59:08.169Z,11.90
2023-01-18T04:01:36.039Z,11.90
2023-01-18T04:04:03.375Z,11.90
2023-01-18T04:06:32.822Z,11.90
2023-01-18T04:09:00.141Z,11.90
2023-01-18T04:11:27.490Z,11.90
2023-01-18T04:13:55.173Z,11.80
2023-01-18T04:16:22.786Z,11.90
2023-01-18T04:18:50.157Z,11.90
2023-01-18T04:21:17.465Z,11.90
2023-01-18T04:23:44.783Z,11.90
2023-01-18T04:26:15.463Z,11.90
2023-01-18T04:28:43.550Z,11.90
2023-01-18T04:31:10.916Z,11.90
2023-01-18T04:33:38.200Z,12.10
2023-01-18T04:36:05.791Z,12.10
2023-01-18T04:38:33.882Z,12.20
2023-01-18T04:41:05.763Z,12.20
2023-01-18T04:43:33.095Z,12.30
2023-01-18T04:46:00.611Z,12.30
2023-01-18T04:48:27.968Z,12.30
2023-01-18T04:50:55.436Z,12.20
2023-01-18T04:53:23.225Z,12.30
2023-01-18T04:55:50.688Z,12.20
2023-01-18T04:58:18.041Z,12.20
2023-01-18T05:00:45.520Z,12.20
2023-01-18T05:03:13.460Z,12.20
2023-01-18T05:05:41.261Z,12.10
2023-01-18T05:08:08.682Z,12.10
2023-01-18T05:10:36.153Z,12.10
2023-01-18T05:13:03.938Z,12.00
2023-01-18T05:15:31.346Z,12.00
2023-01-18T05:17:58.682Z,12.00
2023-01-18T05:20:25.932Z,12.00
2023-01-18T05:22:53.373Z,12.00
2023-01-18T05:25:20.793Z,12.00
2023-01-18T05:27:48.119Z,12.00
2023-01-18T05:30:15.749Z,12.00
2023-01-18T05:32:43.144Z,12.10
2023-01-18T05:35:11.417Z,12.00
2023-01-18T05:37:38.828Z,12.00
2023-01-18T05:40:06.743Z,12.00
2023-01-18T05:42:34.083Z,12.00
2023-01-18T05:45:01.395Z,12.00
2023-01-18T05:47:28.755Z,11.90
2023-01-18T05:49:58.036Z,11.90
2023-01-18T05:52:25.382Z,11.90
2023-01-18T05:54:52.613Z,12.00
2023-01-18T05:57:19.891Z,12.00
2023-01-18T05:59:47.169Z,11.90
2023-01-18T06:02:14.710Z,12.00
2023-01-18T06:04:42.104Z,12.00
2023-01-18T06:07:09.607Z,12.00
2023-01-18T06:09:37.152Z,12.00
2023-01-18T06:12:04.644Z,12.00
2023-01-18T06:14:32.043Z,12.00
2023-01-18T06:16:59.349Z,12.00
2023-01-18T06:19:26.881Z,12.00
2023-01-18T06:21:54.874Z,12.00
2023-01-18T06:24:22.225Z,12.00
2023-01-18T06:26:49.515Z,11.90
2023-01-18T06:29:16.974Z,11.80
2023-01-18T06:31:44.337Z,11.70
2023-01-18T06:34:11.885Z,11.60
2023-01-18T06:36:40.559Z,11.60
2023-01-18T06:39:08.011Z,11.60
2023-01-18T06:41:35.379Z,11.60
2023-01-18T06:44:03.810Z,11.40
2023-01-18T06:46:31.241Z,11.40
2023-01-18T06:48:58.541Z,11.20
2023-01-18T06:51:25.891Z,11.10
2023-01-18T06:53:53.311Z,11.00
2023-01-18T06:56:21.055Z,10.90
2023-01-18T06:58:48.675Z,10.90
2023-01-18T07:01:16.151Z,10.80
2023-01-18T07:03:43.733Z,10.80
2023-01-18T07:06:11.607Z,10.70
2023-01-18T07:08:40.359Z,10.70
2023-01-18T07:11:09.243Z,10.70
2023-01-18T07:13:40.299Z,10.70
2023-01-18T07:16:09.040Z,10.80
2023-01-18T07:18:36.447Z,10.80
2023-01-18T07:21:07.239Z,10.90
2023-01-18T07:23:36.744Z,10.90
2023-01-18T07:26:11.132Z,11.00
2023-01-18T07:28:38.976Z,11.20
2023-01-18T07:31:08.176Z,11.30
2023-01-18T07:33:36.450Z,11.40
2023-01-18T07:36:06.524Z,11.50
2023-01-18T07:38:34.417Z,11.50
2023-01-18T07:41:03.354Z,11.70
2023-01-18T07:43:32.555Z,11.80
2023-01-18T07:46:00.911Z,11.90
2023-01-18T07:48:29.292Z,12.10
2023-01-18T07:51:01.981Z,12.40
2023-01-18T07:53:31.006Z,12.60
2023-01-18T07:56:07.311Z,12.90
2023-01-18T07:58:36.121Z,13.30
2023-01-18T08:01:15.490Z,13.50
2023-01-18T08:03:44.470Z,13.80
2023-01-18T08:06:17.155Z,14.10
2023-01-18T08:08:45.157Z,14.30
2023-01-18T08:11:12.904Z,14.40
2023-01-18T08:13:40.417Z,14.50
2023-01-18T08:16:09.453Z,14.60
2023-01-18T08:18:36.970Z,14.70
2023-01-18T08:21:04.393Z,14.90
2023-01-18T08:23:31.702Z,15.00
2023-01-18T08:26:03.409Z,15.10
2023-01-18T08:28:31.500Z,14.80
2023-01-18T08:31:08.309Z,14.50
2023-01-18T08:33:45.732Z,14.20
2023-01-18T08:36:16.779Z,13.90
2023-01-18T08:38:47.599Z,13.80
2023-01-18T08:41:15.025Z,13.90
2023-01-18T08:43:43.181Z,14.00
2023-01-18T08:46:10.621Z,14.10
2023-01-18T08:48:37.985Z,14.10
2023-01-18T08:51:05.519Z,14.30
2023-01-18T08:53:33.064Z,14.50
2023-01-18T08:56:03.398Z,14.70
2023-01-18T08:58:32.389Z,15.00
2023-01-18T09:00:59.772Z,15.30
2023-01-18T09:03:27.108Z,15.50
2023-01-18T09:05:54.954Z,15.80
2023-01-18T09:08:23.206Z,16.20
2023-01-18T09:10:50.505Z,16.50
2023-01-18T09:13:17.877Z,16.70
2023-01-18T09:15:47.156Z,16.90
2023-01-18T09:18:14.529Z,17.10
2023-01-18T09:20:43.770Z,17.20
2023-01-18T09:23:11.205Z,17.30
2023-01-18T09:25:41.262Z,17.40
2023-01-18T09:28:09.064Z,17.60
2023-01-18T09:30:40.076Z,17.70
2023-01-18T09:33:11.368Z,17.70
2023-01-18T09:35:39.002Z,17.80
2023-01-18T09:38:07.561Z,17.90
2023-01-18T09:40:44.536Z,17.90
2023-01-18T09:43:30.364Z,17.80
2023-01-18T09:46:00.010Z,17.90
2023-01-18T09:48:32.248Z,18.00
2023-01-18T09:51:05.222Z,18.00
2023-01-18T09:54:05.080Z,18.20
2023-01-18T09:57:05.669Z,18.30
2023-01-18T09:59:37.436Z,18.50
2023-01-18T10:02:21.558Z,18.50
2023-01-18T10:04:56.084Z,18.60
2023-01-18T10:07:27.625Z,18.60
2023-01-18T10:09:58.895Z,18.50
2023-01-18T10:12:42.473Z,18.60
2023-01-18T10:15:23.657Z,18.70
2023-01-18T10:17:56.858Z,18.80
2023-01-18T10:20:35.789Z,18.80
2023-01-18T10:23:25.073Z,18.80
2023-01-18T10:26:27.392Z,19.00
2023-01-18T10:28:59.265Z,19.10
2023-01-18T10:31:59.879Z,19.30
2023-01-18T10:34:33.100Z,19.30
2023-01-18T10:37:21.322Z,19.40
2023-01-18T10:39:54.300Z,19.30
2023-01-18T10:42:29.525Z,19.30
2023-01-18T10:44:57.487Z,19.40
2023-01-18T10:47:24.809Z,19.50
2023-01-18T10:50:01.640Z,19.50
2023-01-18T10:52:33.200Z,19.50
2023-01-18T10:55:03.372Z,19.40
2023-01-18T10:57:32.920Z,19.30
2023-01-18T11:00:00.468Z,19.40
2023-01-18T11:02:36.143Z,19.50
2023-01-18T11:05:18.928Z,19.50
2023-01-18T11:07:46.277Z,19.50
2023-01-18T11:10:27.872Z,19.40
2023-01-18T11:12:55.672Z,19.60
2023-01-18T11:15:25.004Z,19.60
2023-01-18T11:17:56.415Z,19.70
2023-01-18T11:20:25.845Z,19.90
2023-01-18T11:23:02.519Z,20.30
2023-01-18T11:25:39.420Z,20.50
2023-01-18T11:28:27.841Z,20.60
2023-01-18T11:31:15.432Z,20.80
2023-01-18T11:33:58.011Z,20.70
2023-01-18T11:36:43.812Z,20.90
2023-01-18T11:39:25.777Z,21.00
2023-01-18T11:42:09.569Z,21.10
2023-01-18T11:44:40.222Z,21.30
2023-01-18T11:47:16.872Z,21.10
2023-01-18T11:50:21.058Z,20.90
2023-01-18T11:53:01.244Z,20.70
2023-01-18T11:55:41.087Z,20.60
2023-01-18T11:58:26.995Z,20.60
2023-01-18T12:01:25.413Z,20.60
2023-01-18T12:03:56.962Z,20.70
2023-01-18T12:06:41.566Z,20.80
2023-01-18T12:09:14.756Z,20.90
2023-01-18T12:12:17.910Z,20.50
2023-01-18T12:14:59.628Z,20.50
2023-01-18T12:17:39.134Z,20.80
2023-01-18T12:20:10.320Z,21.10
2023-01-18T12:23:28.261Z,21.30
2023-01-18T12:26:11.799Z,21.30
2023-01-18T12:28:40.005Z,21.70
2023-01-18T12:31:15.344Z,22.00
2023-01-18T12:34:15.019Z,22.20
2023-01-18T12:36:59.031Z,22.30
2023-01-18T12:39:44.278Z,22.30
2023-01-18T12:42:36.440Z,22.60
2023-01-18T12:45:46.184Z,22.40
2023-01-18T12:48:41.332Z,22.00
2023-01-18T12:51:21.728Z,21.40
2023-01-18T12:53:55.867Z,20.90
2023-01-18T12:56:36.154Z,21.20
2023-01-18T12:59:29.233Z,21.60
2023-01-18T13:02:05.886Z,21.80
2023-01-18T13:04:45.330Z,22.10
2023-01-18T13:07:15.721Z,22.00
2023-01-18T13:09:49.694Z,21.80
2023-01-18T13:12:17.792Z,21.50
2023-01-18T13:14:54.261Z,21.30
2023-01-18T13:17:48.686Z,21.00
2023-01-18T13:20:20.045Z,20.80
2023-01-18T13:23:05.454Z,20.50
2023-01-18T13:25:41.804Z,20.40
2023-01-18T13:28:18.020Z,20.30
2023-01-18T13:31:06.546Z,20.30
2023-01-18T13:33:40.928Z,20.30
2023-01-18T13:36:09.277Z,20.10
2023-01-18T13:38:58.937Z,20.00
2023-01-18T13:41:30.964Z,19.90
2023-01-18T13:43:58.088Z,19.80
2023-01-18T13:46:26.201Z,19.70
2023-01-18T13:49:35.729Z,19.60
2023-01-18T13:52:31.697Z,19.50
2023-01-18T13:55:02.531Z,19.40
2023-01-18T13:57:34.681Z,19.20
2023-01-18T14:00:02.878Z,19.20
2023-01-18T14:02:45.544Z,19.20
2023-01-18T14:05:28.920Z,19.20
2023-01-18T14:08:01.677Z,19.20
2023-01-18T14:10:32.232Z,19.20
2023-01-18T14:13:02.791Z,19.20
2023-01-18T14:15:39.771Z,19.10
2023-01-18T14:18:24.272Z,19.00
2023-01-18T14:21:23.922Z,19.00
2023-01-18T14:24:09.612Z,18.90
2023-01-18T14:26:39.526Z,19.00
2023-01-18T14:29:29.170Z,18.90
2023-01-18T14:31:57.454Z,18.90
2023-01-18T14:34:30.619Z,18.80
2023-01-18T14:36:58.386Z,18.90
2023-01-18T14:39:26.130Z,18.90
2023-01-18T14:42:05.327Z,18.80
2023-01-18T14:44:58.263Z,18.80
2023-01-18T14:47:32.404Z,18.70
2023-01-18T14:50:04.124Z,18.70
2023-01-18T14:52:34.410Z,18.70
2023-01-18T14:55:02.678Z,18.60
2023-01-18T14:57:30.145Z,18.60
2023-01-18T15:00:16.649Z,18.60
2023-01-18T15:02:44.263Z,18.50
2023-01-18T15:05:20.281Z,18.40
2023-01-18T15:07:56.063Z,18.40
2023-01-18T15:10:24.949Z,18.30
2023-01-18T15:12:57.941Z,18.30
2023-01-18T15:15:40.759Z,18.30
2023-01-18T15:18:15.644Z,18.20
2023-01-18T15:21:06.369Z,18.10
2023-01-18T15:23:36.942Z,18.10
2023-01-18T15:26:04.449Z,18.00
2023-01-18T15:28:34.825Z,18.00
2023-01-18T15:31:16.377Z,17.90
2023-01-18T15:33:45.018Z,17.80
2023-01-18T15:36:12.640Z,17.70
2023-01-18T15:38:40.070Z,17.70
2023-01-18T15:41:11.616Z,17.60
2023-01-18T15:43:43.113Z,17.60
2023-01-18T15:46:16.226Z,17.50
2023-01-18T15:48:58.254Z,17.40
2023-01-18T15:51:44.146Z,17.30
2023-01-18T15:54:20.366Z,17.20
2023-01-18T15:56:49.361Z,17.10
2023-01-18T15:59:23.443Z,17.00
2023-01-18T16:02:26.426Z,16.90
2023-01-18T16:05:14.629Z,16.90
2023-01-18T16:07:42.299Z,16.80
2023-01-18T16:10:20.473Z,16.80
2023-01-18T16:12:48.186Z,16.70
2023-01-18T16:15:30.460Z,16.60
2023-01-18T16:18:02.795Z,16.60
2023-01-18T16:20:32.561Z,16.50
2023-01-18T16:23:14.088Z,16.50
2023-01-18T16:25:41.510Z,16.40
2023-01-18T16:28:08.784Z,16.40
2023-01-18T16:30:38.015Z,16.30
2023-01-18T16:33:14.131Z,16.20
2023-01-18T16:35:42.206Z,16.20
2023-01-18T16:38:17.438Z,16.10
2023-01-18T16:40:47.345Z,16.10
2023-01-18T16:43:23.880Z,16.00
2023-01-18T16:45:54.902Z,16.00
2023-01-18T16:48:28.288Z,16.00
2023-01-18T16:51:01.893Z,15.90
2023-01-18T16:53:29.721Z,15.90
2023-01-18T16:55:57.042Z,15.80
2023-01-18T16:58:24.593Z,15.80
2023-01-18T17:01:03.444Z,15.80
2023-01-18T17:03:30.917Z,15.80
2023-01-18T17:05:58.269Z,15.70
2023-01-18T17:08:25.560Z,15.70
2023-01-18T17:10:54.885Z,15.70
2023-01-18T17:13:22.487Z,15.60
2023-01-18T17:15:51.370Z,15.60
2023-01-18T17:18:24.212Z,15.50
2023-01-18T17:20:52.009Z,15.50
2023-01-18T17:23:19.788Z,15.40
2023-01-18T17:25:47.861Z,15.40
2023-01-18T17:28:16.898Z,15.30
2023-01-18T17:30:47.180Z,15.30
2023-01-18T17:33:22.984Z,15.30
2023-01-18T17:35:52.001Z,15.20
2023-01-18T17:38:25.720Z,15.20
2023-01-18T17:40:54.868Z,15.20
2023-01-18T17:43:32.987Z,15.20
2023-01-18T17:46:06.205Z,15.20
2023-01-18T17:48:33.770Z,15.10
2023-01-18T17:51:01.221Z,15.10
2023-01-18T17:53:28.557Z,15.00
2023-01-18T17:55:55.858Z,14.90
2023-01-18T17:58:23.176Z,14.90
2023-01-18T18:00:50.677Z,14.80
2023-01-18T18:03:18.110Z,14.80
2023-01-18T18:05:45.536Z,14.80
2023-01-18T18:08:12.747Z,14.70
2023-01-18T18:10:43.417Z,14.70
2023-01-18T18:13:12.150Z,14.70
2023-01-18T18:15:45.118Z,14.70
2023-01-18T18:18:22.747Z,14.70
2023-01-18T18:20:58.890Z,14.60
2023-01-18T18:23:27.436Z,14.60
2023-01-18T18:25:55.781Z,14.50
2023-01-18T18:28:24.592Z,14.50
2023-01-18T18:30:52.228Z,14.40
2023-01-18T18:33:20.362Z,14.40
2023-01-18T18:35:52.181Z,14.40
2023-01-18T18:38:23.168Z,14.40
2023-01-18T18:40:51.551Z,14.30
2023-01-18T18:43:19.296Z,14.30
2023-01-18T18:45:47.771Z,14.30
2023-01-18T18:48:15.314Z,14.30
2023-01-18T18:50:42.576Z,14.30
2023-01-18T18:53:09.887Z,14.20
2023-01-18T18:55:37.272Z,14.20
2023-01-18T18:58:05.362Z,14.20
2023-01-18T19:00:32.746Z,14.20
2023-01-18T19:03:02.599Z,14.20
2023-01-18T19:05:31.705Z,14.20
2023-01-18T19:07:59.811Z,14.10
2023-01-18T19:10:30.495Z,14.10
2023-01-18T19:12:59.543Z,14.10
2023-01-18T19:15:26.977Z,14.10
2023-01-18T19:17:54.351Z,14.00
2023-01-18T19:20:21.995Z,14.00
2023-01-18T19:22:50.914Z,13.90
2023-01-18T19:25:18.298Z,13.90
2023-01-18T19:27:46.277Z,13.90
2023-01-18T19:30:19.134Z,13.80
2023-01-18T19:32:51.090Z,13.80
2023-01-18T19:35:20.110Z,13.80
2023-01-18T19:37:48.068Z,13.80
2023-01-18T19:40:16.332Z,13.80
2023-01-18T19:42:44.818Z,13.70
2023-01-18T19:45:19.578Z,13.70
2023-01-18T19:47:54.757Z,13.70
2023-01-18T19:50:22.294Z,13.70
2023-01-18T19:52:50.447Z,13.70
2023-01-18T19:55:17.907Z,13.70
2023-01-18T19:57:45.313Z,13.70
2023-01-18T20:00:15.591Z,13.70
2023-01-18T20:02:43.820Z,13.70
2023-01-18T20:05:11.162Z,13.70
2023-01-18T20:07:40.319Z,13.60
2023-01-18T20:10:08.725Z,13.60
2023-01-18T20:12:36.014Z,13.60
2023-01-18T20:15:03.545Z,13.70
2023-01-18T20:17:30.896Z,13.60
2023-01-18T20:19:58.073Z,13.60
2023-01-18T20:22:25.448Z,13.60
2023-01-18T20:24:52.671Z,13.60
2023-01-18T20:27:20.028Z,13.50
2023-01-18T20:29:47.327Z,13.50
2023-01-18T20:32:17.080Z,13.50
2023-01-18T20:34:46.998Z,13.60
2023-01-18T20:37:15.759Z,13.70
2023-01-18T20:39:43.476Z,13.70
2023-01-18T20:42:10.982Z,13.70
2023-01-18T20:44:38.375Z,13.70
2023-01-18T20:47:05.881Z,13.70
2023-01-18T20:49:38.035Z,13.60
2023-01-18T20:52:07.219Z,13.60
2023-01-18T20:54:37.995Z,13.60
2023-01-18T20:57:06.350Z,13.70
2023-01-18T20:59:33.653Z,13.70
2023-01-18T21:02:10.287Z,13.70
2023-01-18T21:04:39.781Z,13.70
2023-01-18T21:07:07.002Z,13.70
2023-01-18T21:09:34.214Z,13.80
2023-01-18T21:12:01.575Z,13.90
2023-01-18T21:15:16.737Z,14.00
2023-01-18T21:18:04.166Z,14.00
2023-01-18T21:20:34.509Z,14.10
2023-01-18T21:23:02.109Z,14.10
2023-01-18T21:25:29.751Z,14.10
2023-01-18T21:28:00.424Z,14.00
2023-01-18T21:30:27.947Z,14.00
2023-01-18T21:32:58.044Z,14.00
2023-01-18T21:35:25.349Z,13.90
2023-01-18T21:37:52.742Z,13.90
2023-01-18T21:40:20.037Z,13.80
2023-01-18T21:43:08.458Z,13.80
2023-01-18T21:45:56.700Z,13.90
2023-01-18T21:48:43.484Z,14.00
2023-01-18T21:51:31.492Z,14.10
2023-01-18T21:57:34.201Z,14.30
2023-01-18T22:00:05.753Z,14.50
2023-01-18T22:02:35.075Z,14.60
2023-01-18T22:05:06.235Z,14.80
2023-01-18T22:07:35.500Z,14.90
2023-01-18T22:10:06.141Z,15.00
2023-01-18T22:12:36.038Z,15.10
2023-01-18T22:15:05.363Z,15.20
2023-01-18T22:17:35.693Z,15.20
2023-01-18T22:20:04.699Z,15.20
2023-01-18T22:22:31.962Z,15.30
2023-01-18T22:25:02.286Z,15.40
2023-01-18T22:27:29.744Z,15.40
2023-01-18T22:32:39.095Z,15.40
2023-01-18T22:35:06.581Z,15.40
2023-01-18T22:37:33.737Z,15.20
2023-01-18T22:40:01.018Z,15.00
2023-01-18T22:42:28.370Z,14.90
2023-01-18T22:44:55.610Z,14.70
2023-01-18T22:47:22.990Z,14.60
2023-01-18T22:49:50.181Z,14.50
2023-01-18T22:52:17.580Z,14.50
2023-01-18T22:54:44.991Z,14.40
2023-01-18T22:57:13.295Z,14.40
2023-01-18T22:59:40.710Z,14.40
2023-01-18T23:02:07.960Z,14.40
2023-01-18T23:04:35.516Z,14.40
2023-01-18T23:07:02.751Z,14.40
2023-01-18T23:09:38.492Z,14.30
2023-01-18T23:12:05.913Z,14.30
2023-01-18T23:14:53.427Z,14.30
2023-01-18T23:17:39.337Z,14.30
2023-01-18T23:20:11.816Z,14.30
2023-01-18T23:22:40.941Z,14.30
2023-01-18T23:25:12.445Z,14.20
2023-01-18T23:27:39.799Z,14.20
2023-01-18T23:30:07.613Z,14.10
2023-01-18T23:32:37.434Z,14.10
2023-01-18T23:35:06.168Z,14.00
2023-01-18T23:37:34.977Z,14.00
2023-01-18T23:40:22.571Z,14.00
2023-01-18T23:43:12.195Z,13.90
2023-01-18T23:45:58.201Z,13.90
2023-01-18T23:48:45.017Z,13.90
2023-01-18T23:51:31.919Z,13.90
2023-01-18T23:54:17.044Z,13.90
2023-01-18T23:56:46.099Z,13.90
2023-01-18T23:59:14.348Z,13.90
